Fulton, Missouri
Current Conditions -  °F | °C
As of 7:50 AM on Sunday 23 Nov 2014 (Local Time) from KCOU Reporting Station
Light Rain Light Rain  
Wind Chill: 54°   Ceiling: 900
Heat Index: 54°   Visibility: 7mi
Dew Point: 52°   Wind: 14mph
Humidity: 94%   Direction: 140°SE
Pressure: 29.6"   Gusts: NA
Location:  38.85°N, 91.95°W
Report Text: KCOU 231350Z 14012KT 7SM -RA BKN009 BKN014 OVC038 12/11 A2960 RMK AO2 CIG 005V010 P0010 $
Loading
Personal Weather Stations






























Interactive Weather Map New forecast layout! Learn more

10-Day Weather Forecast

Advertisements
Track Severe Weather on mobile